createdAt,value
2017-10-17T16:04:00.213Z,1013.93
2017-10-17T16:04:40.772Z,1013.96
2017-10-17T16:05:21.354Z,1013.99
2017-10-17T16:06:01.921Z,1013.96
2017-10-17T16:06:42.533Z,1013.97
2017-10-17T16:07:23.119Z,1013.95
2017-10-17T16:08:03.705Z,1013.97
2017-10-17T16:08:44.270Z,1013.98
2017-10-17T16:09:24.831Z,1013.95
2017-10-17T16:10:05.417Z,1013.98
2017-10-17T16:10:45.987Z,1013.96
2017-10-17T16:11:26.584Z,1013.98
2017-10-17T16:12:07.186Z,1013.96
2017-10-17T16:12:47.757Z,1013.96
2017-10-17T16:13:28.340Z,1013.97
2017-10-17T16:14:08.929Z,1013.99
2017-10-17T16:14:49.503Z,1013.99
2017-10-17T16:15:30.084Z,1013.98
2017-10-17T16:16:10.681Z,1013.96
2017-10-17T16:16:51.259Z,1013.98
2017-10-17T16:17:31.847Z,1013.98
2017-10-17T16:18:12.404Z,1013.94
2017-10-17T16:18:52.980Z,1013.93
2017-10-17T16:19:33.538Z,1013.97
2017-10-17T16:20:14.121Z,1013.97
2017-10-17T16:20:54.698Z,1013.91
2017-10-17T16:21:35.289Z,1013.91
2017-10-17T16:22:15.866Z,1013.88
2017-10-17T16:22:56.465Z,1013.91
2017-10-17T16:23:37.041Z,1013.93
2017-10-17T16:24:17.600Z,1013.91
2017-10-17T16:24:58.173Z,1013.89
2017-10-17T16:25:38.743Z,1013.86
2017-10-17T16:26:19.307Z,1013.89
2017-10-17T16:26:59.876Z,1013.88
2017-10-17T16:27:40.443Z,1013.92
2017-10-17T16:28:21.376Z,1013.88
2017-10-17T16:29:01.962Z,1013.86
2017-10-17T16:29:42.544Z,1013.9
2017-10-17T16:30:23.111Z,1013.88
2017-10-17T16:31:03.745Z,1013.85
2017-10-17T16:31:44.289Z,1013.86
2017-10-17T16:32:24.922Z,1013.89
2017-10-17T16:33:05.478Z,1013.86
2017-10-17T16:33:46.090Z,1013.88
2017-10-17T16:34:26.707Z,1013.94
2017-10-17T16:35:07.325Z,1013.9
2017-10-17T16:35:47.902Z,1013.89
2017-10-17T16:36:28.463Z,1013.89
2017-10-17T16:37:09.123Z,1013.88
2017-10-17T16:37:49.704Z,1013.85
2017-10-17T16:38:30.288Z,1013.86
2017-10-17T16:39:10.902Z,1013.87
2017-10-17T16:39:51.478Z,1013.92
2017-10-17T16:40:32.106Z,1013.89
2017-10-17T16:41:12.701Z,1013.9
2017-10-17T16:41:53.268Z,1013.89
2017-10-17T16:42:33.848Z,1013.9
2017-10-17T16:43:14.487Z,1013.9
2017-10-17T16:43:55.066Z,1013.92
2017-10-17T16:44:35.659Z,1013.93
2017-10-17T16:45:16.190Z,1013.9
2017-10-17T16:45:56.770Z,1013.91
2017-10-17T16:46:37.499Z,1013.88
2017-10-17T16:47:18.148Z,1013.89
2017-10-17T16:47:58.753Z,1013.88
2017-10-17T16:48:39.555Z,1013.88
2017-10-17T16:49:20.228Z,1013.86
2017-10-17T16:50:00.914Z,1013.89
2017-10-17T16:50:41.477Z,1013.88
2017-10-17T16:51:22.046Z,1013.87
2017-10-17T16:52:02.649Z,1013.87
2017-10-17T16:52:43.228Z,1013.87
2017-10-17T16:53:23.794Z,1013.91
2017-10-17T16:54:04.358Z,1013.86
2017-10-17T16:54:44.936Z,1013.89
2017-10-17T16:55:25.496Z,1013.85
2017-10-17T16:56:06.112Z,1013.89
2017-10-17T16:56:46.685Z,1013.92
2017-10-17T16:57:27.275Z,1013.91
2017-10-17T16:58:07.873Z,1013.92
2017-10-17T16:58:48.628Z,1013.91
2017-10-17T16:59:29.553Z,1013.88
2017-10-17T17:00:10.143Z,1013.89
2017-10-17T17:00:50.707Z,1013.89
2017-10-17T17:01:31.284Z,1013.93
2017-10-17T17:02:11.852Z,1013.92
2017-10-17T17:02:52.422Z,1013.9
2017-10-17T17:03:32.991Z,1013.9
2017-10-17T17:04:13.578Z,1013.89
2017-10-17T17:04:54.155Z,1013.9
2017-10-17T17:05:34.724Z,1013.91
2017-10-17T17:06:15.314Z,1013.9
2017-10-17T17:06:55.984Z,1013.91
2017-10-17T17:07:36.886Z,1013.9
2017-10-17T17:08:17.835Z,1013.9
2017-10-17T17:08:58.874Z,1013.92
2017-10-17T17:09:42.171Z,1013.94
2017-10-17T17:10:23.250Z,1013.96
2017-10-17T17:11:04.676Z,1013.96
2017-10-17T17:11:45.373Z,1013.98
2017-10-17T17:12:26.174Z,1013.96
2017-10-17T17:13:06.866Z,1013.96
2017-10-17T17:13:48.751Z,1013.95
2017-10-17T17:14:29.695Z,1013.97
2017-10-17T17:15:10.534Z,1013.98
2017-10-17T17:15:51.431Z,1013.95
2017-10-17T17:16:32.156Z,1014.01
2017-10-17T17:17:13.208Z,1014
2017-10-17T17:17:54.271Z,1014.03
2017-10-17T17:18:35.234Z,1013.97
2017-10-17T17:19:15.953Z,1013.98
2017-10-17T17:19:56.660Z,1014.02
2017-10-17T17:20:37.316Z,1014
2017-10-17T17:21:17.956Z,1013.96
2017-10-17T17:21:58.800Z,1013.98
2017-10-17T17:22:39.694Z,1014.05
2017-10-17T17:23:20.916Z,1014.01
2017-10-17T17:24:02.199Z,1014
2017-10-17T17:24:43.071Z,1014
2017-10-17T17:25:23.828Z,1014.03
2017-10-17T17:26:05.129Z,1014.02
2017-10-17T17:26:46.557Z,1013.98
2017-10-17T17:27:27.716Z,1013.99
2017-10-17T17:28:11.091Z,1014
2017-10-17T17:28:51.907Z,1013.96
2017-10-17T17:29:32.714Z,1013.99
2017-10-17T17:30:13.562Z,1013.95
2017-10-17T17:30:54.131Z,1013.97
2017-10-17T17:31:34.694Z,1013.98
2017-10-17T17:32:15.274Z,1013.96
2017-10-17T17:32:55.882Z,1013.98
2017-10-17T17:33:36.460Z,1013.98
2017-10-17T17:34:17.057Z,1013.95
2017-10-17T17:34:57.621Z,1013.99
2017-10-17T17:35:38.179Z,1013.97
2017-10-17T17:36:18.787Z,1013.98
2017-10-17T17:36:59.361Z,1013.97
2017-10-17T17:37:39.924Z,1013.94
2017-10-17T17:38:20.523Z,1013.98
2017-10-17T17:39:01.115Z,1013.98
2017-10-17T17:39:41.710Z,1013.96
2017-10-17T17:40:22.270Z,1013.98
2017-10-17T17:41:02.848Z,1013.97
2017-10-17T17:41:43.544Z,1013.97
2017-10-17T17:42:26.783Z,1013.96
2017-10-17T17:43:08.705Z,1013.99
2017-10-17T17:43:50.703Z,1013.96
2017-10-17T17:44:31.823Z,1013.99
2017-10-17T17:45:13.455Z,1013.97
2017-10-17T17:45:55.189Z,1013.95
2017-10-17T17:46:35.986Z,1013.97
2017-10-17T17:47:16.636Z,1013.94
2017-10-17T17:47:57.237Z,1013.91
2017-10-17T17:48:37.838Z,1013.9
2017-10-17T17:49:18.442Z,1013.89
2017-10-17T17:49:59.009Z,1013.9
2017-10-17T17:50:39.600Z,1013.92
2017-10-17T17:51:20.166Z,1013.9
2017-10-17T17:52:00.744Z,1013.88
2017-10-17T17:52:41.314Z,1013.89
2017-10-17T17:53:21.879Z,1013.89
2017-10-17T17:54:02.692Z,1013.9
2017-10-17T17:54:43.637Z,1013.88
2017-10-17T17:55:26.087Z,1013.9
2017-10-17T17:56:06.906Z,1013.89
2017-10-17T17:57:37.172Z,1013.9
2017-10-17T17:58:17.650Z,1013.92
2017-10-17T17:58:58.234Z,1013.93
2017-10-17T17:59:38.844Z,1013.92
2017-10-17T18:00:19.425Z,1013.87
2017-10-17T18:01:00.007Z,1013.95
2017-10-17T18:01:40.598Z,1013.95
2017-10-17T18:02:21.155Z,1013.94
2017-10-17T18:03:01.751Z,1013.97
2017-10-17T18:03:42.325Z,1013.92
2017-10-17T18:04:22.894Z,1013.94
2017-10-17T18:05:03.474Z,1013.96
2017-10-17T18:05:44.057Z,1013.95
2017-10-17T18:07:18.637Z,1013.88
2017-10-17T18:08:00.095Z,1013.93
2017-10-17T18:08:41.644Z,1013.88
2017-10-17T18:09:22.384Z,1013.87
2017-10-17T18:10:02.978Z,1013.88
2017-10-17T18:10:43.564Z,1013.89
2017-10-17T18:11:24.132Z,1013.88
2017-10-17T18:12:04.697Z,1013.88
2017-10-17T18:12:45.311Z,1013.89
2017-10-17T18:13:25.866Z,1013.88
2017-10-17T18:14:06.438Z,1013.86
2017-10-17T18:14:47.011Z,1013.9
2017-10-17T18:15:27.627Z,1013.85
2017-10-17T18:16:08.202Z,1013.79
2017-10-17T18:16:48.769Z,1013.81
2017-10-17T18:17:29.333Z,1013.79
2017-10-17T18:18:09.893Z,1013.78
2017-10-17T18:18:50.469Z,1013.8
2017-10-17T18:19:31.041Z,1013.75
2017-10-17T18:20:11.607Z,1013.79
2017-10-17T18:20:52.182Z,1013.77
2017-10-17T18:21:32.791Z,1013.74
2017-10-17T18:22:13.370Z,1013.72
2017-10-17T18:22:54.018Z,1013.73
2017-10-17T18:23:34.823Z,1013.72
2017-10-17T18:24:15.683Z,1013.73
2017-10-17T18:24:56.339Z,1013.69
2017-10-17T18:25:36.958Z,1013.7
2017-10-17T18:26:17.584Z,1013.67
2017-10-17T18:26:58.159Z,1013.66
2017-10-17T18:27:38.723Z,1013.64
2017-10-17T18:28:19.315Z,1013.66
2017-10-17T18:28:59.898Z,1013.67
2017-10-17T18:29:40.488Z,1013.66
2017-10-17T18:30:21.063Z,1013.67
2017-10-17T18:31:01.627Z,1013.7
2017-10-17T18:31:42.193Z,1013.7
2017-10-17T18:32:22.770Z,1013.72
2017-10-17T18:33:03.512Z,1013.71
2017-10-17T18:33:44.113Z,1013.67
2017-10-17T18:34:24.820Z,1013.68
2017-10-17T18:35:05.560Z,1013.66
2017-10-17T18:35:46.126Z,1013.65
2017-10-17T18:36:26.706Z,1013.64
2017-10-17T18:37:07.375Z,1013.66
2017-10-17T18:37:48.768Z,1013.69
2017-10-17T18:38:29.755Z,1013.65
2017-10-17T18:39:10.712Z,1013.67
2017-10-17T18:39:51.385Z,1013.64
2017-10-17T18:40:32.123Z,1013.63
2017-10-17T18:41:13.128Z,1013.69
2017-10-17T18:41:53.883Z,1013.68
2017-10-17T18:42:34.469Z,1013.67
2017-10-17T18:43:15.273Z,1013.66
2017-10-17T18:43:56.093Z,1013.65
2017-10-17T18:44:37.221Z,1013.66
2017-10-17T18:45:18.013Z,1013.65
2017-10-17T18:45:59.087Z,1013.64
2017-10-17T18:46:40.186Z,1013.68
2017-10-17T18:47:21.100Z,1013.64
2017-10-17T18:48:01.667Z,1013.65
2017-10-17T18:48:42.294Z,1013.62
2017-10-17T18:49:22.859Z,1013.62
2017-10-17T18:50:04.143Z,1013.63
2017-10-17T18:50:45.089Z,1013.61
2017-10-17T18:51:26.428Z,1013.66
2017-10-17T18:52:07.488Z,1013.63
2017-10-17T18:52:48.247Z,1013.65
2017-10-17T18:53:28.873Z,1013.58
2017-10-17T18:54:09.792Z,1013.63
2017-10-17T18:54:50.545Z,1013.61
2017-10-17T18:55:31.340Z,1013.62
2017-10-17T18:56:12.354Z,1013.6
2017-10-17T18:56:52.932Z,1013.6
2017-10-17T18:57:33.533Z,1013.6
2017-10-17T18:58:14.106Z,1013.63
2017-10-17T18:58:54.811Z,1013.64
2017-10-17T18:59:35.852Z,1013.62
2017-10-17T19:00:17.238Z,1013.65
2017-10-17T19:00:58.012Z,1013.67
2017-10-17T19:01:40.505Z,1013.67
2017-10-17T19:02:21.327Z,1013.64
2017-10-17T19:03:02.680Z,1013.63
2017-10-17T19:03:43.751Z,1013.64
2017-10-17T19:04:25.151Z,1013.65
2017-10-17T19:05:06.220Z,1013.63
2017-10-17T19:05:47.178Z,1013.59
2017-10-17T19:06:28.125Z,1013.6
2017-10-17T19:07:09.271Z,1013.58
2017-10-17T19:07:50.681Z,1013.61
2017-10-17T19:08:32.022Z,1013.59
2017-10-17T19:09:12.852Z,1013.58
2017-10-17T19:09:53.461Z,1013.58
2017-10-17T19:10:34.056Z,1013.59
2017-10-17T19:11:14.668Z,1013.56
2017-10-17T19:11:55.236Z,1013.56
2017-10-17T19:12:35.806Z,1013.56
2017-10-17T19:13:16.422Z,1013.53
2017-10-17T19:13:56.987Z,1013.48
2017-10-17T19:14:37.568Z,1013.5
2017-10-17T19:15:19.018Z,1013.52
2017-10-17T19:16:00.446Z,1013.47
2017-10-17T19:16:41.810Z,1013.47
2017-10-17T19:17:23.095Z,1013.47
2017-10-17T19:18:04.175Z,1013.47
2017-10-17T19:18:45.189Z,1013.48
2017-10-17T19:19:25.948Z,1013.45
2017-10-17T19:20:06.881Z,1013.41
2017-10-17T19:20:48.005Z,1013.41
2017-10-17T19:21:28.665Z,1013.41
2017-10-17T19:22:09.249Z,1013.45
2017-10-17T19:22:49.850Z,1013.4
2017-10-17T19:23:30.420Z,1013.43
2017-10-17T19:24:10.994Z,1013.44
2017-10-17T19:24:51.552Z,1013.4
2017-10-17T19:25:32.203Z,1013.42
2017-10-17T19:26:12.857Z,1013.42
2017-10-17T19:26:53.482Z,1013.41
2017-10-17T19:27:34.104Z,1013.45
2017-10-17T19:28:14.736Z,1013.43
2017-10-17T19:28:55.300Z,1013.42
2017-10-17T19:29:35.873Z,1013.45
2017-10-17T19:30:16.440Z,1013.43
2017-10-17T19:30:57.016Z,1013.46
2017-10-17T19:31:37.598Z,1013.45
2017-10-17T19:32:18.178Z,1013.5
2017-10-17T19:32:58.747Z,1013.44
2017-10-17T19:33:39.329Z,1013.51
2017-10-17T19:34:19.895Z,1013.42
2017-10-17T19:35:00.466Z,1013.45
2017-10-17T19:35:41.030Z,1013.42
2017-10-17T19:36:21.621Z,1013.41
2017-10-17T19:37:02.184Z,1013.48
2017-10-17T19:37:42.747Z,1013.48
2017-10-17T19:38:23.308Z,1013.44
2017-10-17T19:39:03.881Z,1013.47
2017-10-17T19:39:44.455Z,1013.49
2017-10-17T19:40:25.021Z,1013.45
2017-10-17T19:41:05.579Z,1013.46
2017-10-17T19:41:46.150Z,1013.47
2017-10-17T19:42:26.724Z,1013.5
2017-10-17T19:43:07.295Z,1013.44
2017-10-17T19:43:47.859Z,1013.47
2017-10-17T19:44:28.431Z,1013.48
2017-10-17T19:45:09.041Z,1013.46
2017-10-17T19:45:49.600Z,1013.48
2017-10-17T19:46:30.169Z,1013.48
2017-10-17T19:47:10.744Z,1013.49
2017-10-17T19:47:51.312Z,1013.49
2017-10-17T19:48:31.894Z,1013.48
2017-10-17T19:49:12.463Z,1013.51
2017-10-17T19:49:53.038Z,1013.45
2017-10-17T19:50:33.614Z,1013.53
2017-10-17T19:51:14.191Z,1013.49
2017-10-17T19:51:54.750Z,1013.51
2017-10-17T19:52:35.343Z,1013.48
2017-10-17T19:53:15.957Z,1013.45
2017-10-17T19:53:56.594Z,1013.52
2017-10-17T19:54:37.211Z,1013.47
2017-10-17T19:55:17.759Z,1013.48
2017-10-17T19:55:58.353Z,1013.46
2017-10-17T19:56:38.933Z,1013.47
2017-10-17T19:57:19.522Z,1013.45
2017-10-17T19:58:00.090Z,1013.48
2017-10-17T19:58:40.656Z,1013.46
2017-10-17T19:59:21.223Z,1013.43
2017-10-17T20:00:01.808Z,1013.44
2017-10-17T20:00:42.382Z,1013.46
2017-10-17T20:01:22.946Z,1013.46
2017-10-17T20:02:03.525Z,1013.46
2017-10-17T20:02:44.088Z,1013.49
2017-10-17T20:03:24.654Z,1013.48
2017-10-17T20:04:05.245Z,1013.46
2017-10-17T20:04:45.818Z,1013.48
2017-10-17T20:05:26.381Z,1013.5
2017-10-17T20:06:06.972Z,1013.44
2017-10-17T20:06:47.557Z,1013.53
2017-10-17T20:07:28.120Z,1013.54
2017-10-17T20:08:08.696Z,1013.47
2017-10-17T20:08:49.257Z,1013.51
2017-10-17T20:09:29.829Z,1013.49
2017-10-17T20:10:10.393Z,1013.53
2017-10-17T20:10:50.952Z,1013.55
2017-10-17T20:11:31.539Z,1013.5
2017-10-17T20:12:12.115Z,1013.51
2017-10-17T20:12:52.712Z,1013.54
2017-10-17T20:13:33.285Z,1013.52
2017-10-17T20:14:13.863Z,1013.54
2017-10-17T20:14:54.430Z,1013.53
2017-10-17T20:15:35.012Z,1013.54
2017-10-17T20:16:15.601Z,1013.54
2017-10-17T20:16:56.169Z,1013.57
2017-10-17T20:17:36.734Z,1013.53
2017-10-17T20:18:17.310Z,1013.57
2017-10-17T20:18:57.877Z,1013.58
2017-10-17T20:19:38.450Z,1013.55
2017-10-17T20:20:19.033Z,1013.59
2017-10-17T20:20:59.624Z,1013.57
2017-10-17T20:21:40.190Z,1013.59
2017-10-17T20:22:20.758Z,1013.61
2017-10-17T20:23:01.338Z,1013.58
2017-10-17T20:23:41.909Z,1013.61
2017-10-17T20:24:22.485Z,1013.6
2017-10-17T20:25:03.073Z,1013.62
2017-10-17T20:25:43.649Z,1013.63
2017-10-17T20:26:24.228Z,1013.59
2017-10-17T20:27:04.804Z,1013.58
2017-10-17T20:27:45.402Z,1013.6
2017-10-17T20:28:25.977Z,1013.61
2017-10-17T20:29:06.555Z,1013.58
2017-10-17T20:29:47.141Z,1013.62
2017-10-17T20:30:27.718Z,1013.58
2017-10-17T20:31:08.313Z,1013.58
2017-10-17T20:31:48.875Z,1013.53
2017-10-17T20:32:29.445Z,1013.57
2017-10-17T20:33:10.010Z,1013.59
2017-10-17T20:33:50.587Z,1013.54
2017-10-17T20:34:31.164Z,1013.57
2017-10-17T20:35:11.743Z,1013.57
2017-10-17T20:35:52.299Z,1013.54
2017-10-17T20:36:32.885Z,1013.58
2017-10-17T20:37:13.466Z,1013.61
2017-10-17T20:37:54.081Z,1013.55
2017-10-17T20:38:34.649Z,1013.55
2017-10-17T20:39:15.237Z,1013.54
2017-10-17T20:39:55.849Z,1013.6
2017-10-17T20:40:36.399Z,1013.58
2017-10-17T20:41:16.969Z,1013.59
2017-10-17T20:41:57.530Z,1013.58
2017-10-17T20:42:38.106Z,1013.55
2017-10-17T20:43:18.692Z,1013.6
2017-10-17T20:43:59.270Z,1013.57
2017-10-17T20:44:39.833Z,1013.6
2017-10-17T20:45:20.529Z,1013.57
2017-10-17T20:46:01.098Z,1013.58
2017-10-17T20:46:41.698Z,1013.56
2017-10-17T20:47:22.238Z,1013.58
2017-10-17T20:48:02.847Z,1013.6
2017-10-17T20:48:43.404Z,1013.54
2017-10-17T20:49:23.994Z,1013.54
2017-10-17T20:50:04.587Z,1013.53
2017-10-17T20:50:45.152Z,1013.52
2017-10-17T20:51:25.764Z,1013.5
2017-10-17T20:52:06.324Z,1013.5
2017-10-17T20:52:46.922Z,1013.49
2017-10-17T20:53:27.491Z,1013.52
2017-10-17T20:54:08.076Z,1013.5
2017-10-17T20:54:48.641Z,1013.48
2017-10-17T20:55:29.293Z,1013.53
2017-10-17T20:56:09.860Z,1013.55
2017-10-17T20:56:50.472Z,1013.5
2017-10-17T20:57:31.041Z,1013.54
2017-10-17T20:58:11.620Z,1013.5
2017-10-17T20:58:52.192Z,1013.52
2017-10-17T20:59:32.769Z,1013.5
2017-10-17T21:00:13.330Z,1013.51
2017-10-17T21:00:53.904Z,1013.5
2017-10-17T21:01:34.481Z,1013.51
2017-10-17T21:02:15.062Z,1013.47
2017-10-17T21:02:55.637Z,1013.48
2017-10-17T21:03:36.200Z,1013.47
2017-10-17T21:04:16.847Z,1013.46
2017-10-17T21:04:57.418Z,1013.49
2017-10-17T21:05:37.986Z,1013.51
2017-10-17T21:06:18.549Z,1013.48
2017-10-17T21:06:59.142Z,1013.48
2017-10-17T21:07:39.690Z,1013.46
2017-10-17T21:08:20.253Z,1013.47
2017-10-17T21:09:00.820Z,1013.48
2017-10-17T21:09:41.392Z,1013.49
2017-10-17T21:10:21.994Z,1013.53
2017-10-17T21:11:02.601Z,1013.5
2017-10-17T21:11:43.167Z,1013.55
2017-10-17T21:12:23.751Z,1013.49
2017-10-17T21:13:04.320Z,1013.49
2017-10-17T21:13:44.940Z,1013.5
2017-10-17T21:14:25.481Z,1013.55
2017-10-17T21:15:06.055Z,1013.55
2017-10-17T21:15:46.697Z,1013.51
2017-10-17T21:16:27.270Z,1013.5
2017-10-17T21:17:07.828Z,1013.49
2017-10-17T21:17:48.433Z,1013.54
2017-10-17T21:18:29.012Z,1013.51
2017-10-17T21:19:09.576Z,1013.52
2017-10-17T21:19:50.153Z,1013.53
2017-10-17T21:20:30.715Z,1013.47
2017-10-17T21:21:11.293Z,1013.51
2017-10-17T21:21:51.869Z,1013.52
2017-10-17T21:22:32.452Z,1013.53
2017-10-17T21:23:13.013Z,1013.53
2017-10-17T21:23:53.618Z,1013.5
2017-10-17T21:24:34.147Z,1013.55
2017-10-17T21:25:14.729Z,1013.54
2017-10-17T21:25:55.302Z,1013.54
2017-10-17T21:26:35.871Z,1013.52
2017-10-17T21:27:16.444Z,1013.54
2017-10-17T21:27:57.015Z,1013.52
2017-10-17T21:28:37.592Z,1013.54
2017-10-17T21:29:18.197Z,1013.55
2017-10-17T21:29:58.771Z,1013.46
2017-10-17T21:30:39.342Z,1013.51
2017-10-17T21:31:19.913Z,1013.51
2017-10-17T21:32:00.488Z,1013.48
2017-10-17T21:32:41.049Z,1013.51
2017-10-17T21:33:21.621Z,1013.48
2017-10-17T21:34:02.200Z,1013.47
2017-10-17T21:34:42.761Z,1013.5
2017-10-17T21:35:23.329Z,1013.54
2017-10-17T21:36:03.909Z,1013.55
2017-10-17T21:36:44.479Z,1013.51
2017-10-17T21:37:25.066Z,1013.54
2017-10-17T21:38:05.628Z,1013.51
2017-10-17T21:38:46.204Z,1013.5
2017-10-17T21:39:26.791Z,1013.49
2017-10-17T21:40:07.343Z,1013.46
2017-10-17T21:40:47.914Z,1013.47
2017-10-17T21:41:28.488Z,1013.44
2017-10-17T21:42:09.100Z,1013.46
2017-10-17T21:42:49.666Z,1013.45
2017-10-17T21:43:30.241Z,1013.4
2017-10-17T21:44:10.838Z,1013.41
2017-10-17T21:44:51.486Z,1013.42
2017-10-17T21:45:32.047Z,1013.36
2017-10-17T21:46:12.631Z,1013.36
2017-10-17T21:46:53.196Z,1013.37
2017-10-17T21:47:33.780Z,1013.34
2017-10-17T21:48:14.353Z,1013.37
2017-10-17T21:48:54.909Z,1013.38
2017-10-17T21:49:35.484Z,1013.33
2017-10-17T21:50:16.052Z,1013.36
2017-10-17T21:50:56.628Z,1013.35
2017-10-17T21:51:37.197Z,1013.34
2017-10-17T21:52:17.762Z,1013.33
2017-10-17T21:52:58.328Z,1013.34
2017-10-17T21:53:38.931Z,1013.32
2017-10-17T21:54:19.502Z,1013.31
2017-10-17T21:55:00.075Z,1013.33
2017-10-17T21:55:40.647Z,1013.29
2017-10-17T21:56:21.209Z,1013.31
2017-10-17T21:57:01.825Z,1013.32
2017-10-17T21:57:42.395Z,1013.29
2017-10-17T21:58:22.980Z,1013.3
2017-10-17T21:59:03.542Z,1013.3
2017-10-17T21:59:44.110Z,1013.29
2017-10-17T22:00:24.683Z,1013.32
2017-10-17T22:01:05.267Z,1013.31
2017-10-17T22:01:45.845Z,1013.26
2017-10-17T22:02:26.425Z,1013.23
2017-10-17T22:03:07.016Z,1013.27
2017-10-17T22:03:47.580Z,1013.29
2017-10-17T22:04:28.170Z,1013.3
2017-10-17T22:05:08.758Z,1013.27
2017-10-17T22:05:49.367Z,1013.25
2017-10-17T22:06:29.934Z,1013.28
2017-10-17T22:07:10.499Z,1013.28
2017-10-17T22:07:51.061Z,1013.25
2017-10-17T22:08:31.622Z,1013.29
2017-10-17T22:09:12.183Z,1013.31
2017-10-17T22:09:52.753Z,1013.32
2017-10-17T22:10:33.333Z,1013.26
2017-10-17T22:11:13.920Z,1013.33
2017-10-17T22:11:54.520Z,1013.33
2017-10-17T22:12:35.078Z,1013.34
2017-10-17T22:13:15.649Z,1013.33
2017-10-17T22:13:56.231Z,1013.33
2017-10-17T22:14:36.840Z,1013.36
2017-10-17T22:15:17.421Z,1013.34
2017-10-17T22:15:57.988Z,1013.38
2017-10-17T22:16:38.555Z,1013.35
2017-10-17T22:17:19.129Z,1013.39
2017-10-17T22:17:59.769Z,1013.39
2017-10-17T22:18:40.340Z,1013.38
2017-10-17T22:19:20.932Z,1013.4
2017-10-17T22:20:01.499Z,1013.35
2017-10-17T22:20:42.058Z,1013.34
2017-10-17T22:21:22.646Z,1013.37
2017-10-17T22:22:03.205Z,1013.41
2017-10-17T22:22:43.766Z,1013.4
2017-10-17T22:23:24.333Z,1013.35
2017-10-17T22:24:04.925Z,1013.4
2017-10-17T22:24:45.480Z,1013.43
2017-10-17T22:25:26.057Z,1013.42
2017-10-17T22:26:06.642Z,1013.38
2017-10-17T22:26:47.209Z,1013.4
2017-10-17T22:27:27.792Z,1013.39
2017-10-17T22:28:08.368Z,1013.41
2017-10-17T22:28:48.951Z,1013.39
2017-10-17T22:29:29.523Z,1013.35
2017-10-17T22:30:10.084Z,1013.39
2017-10-17T22:30:50.654Z,1013.38
2017-10-17T22:31:31.219Z,1013.41
2017-10-17T22:32:11.780Z,1013.39
2017-10-17T22:32:52.416Z,1013.35
2017-10-17T22:33:32.975Z,1013.36
2017-10-17T22:34:13.562Z,1013.32
2017-10-17T22:34:54.125Z,1013.32
2017-10-17T22:35:34.721Z,1013.37
2017-10-17T22:36:15.297Z,1013.31
2017-10-17T22:36:55.867Z,1013.34
2017-10-17T22:37:36.438Z,1013.3
2017-10-17T22:38:17.003Z,1013.33
2017-10-17T22:38:57.578Z,1013.31
2017-10-17T22:39:38.148Z,1013.31
2017-10-17T22:40:18.709Z,1013.29
2017-10-17T22:40:59.283Z,1013.3
2017-10-17T22:41:39.860Z,1013.3
2017-10-17T22:42:20.418Z,1013.27
2017-10-17T22:43:00.989Z,1013.22
2017-10-17T22:43:41.553Z,1013.26
2017-10-17T22:44:22.121Z,1013.26
2017-10-17T22:45:02.694Z,1013.24
2017-10-17T22:45:43.270Z,1013.28
2017-10-17T22:46:23.839Z,1013.26
2017-10-17T22:47:04.398Z,1013.24
2017-10-17T22:47:44.963Z,1013.25
2017-10-17T22:48:25.533Z,1013.23
2017-10-17T22:49:06.105Z,1013.22
2017-10-17T22:49:46.718Z,1013.25
2017-10-17T22:50:27.288Z,1013.22
2017-10-17T22:51:07.863Z,1013.24
2017-10-17T22:51:48.424Z,1013.22
2017-10-17T22:52:28.991Z,1013.24
2017-10-17T22:53:09.554Z,1013.23
2017-10-17T22:53:50.130Z,1013.27
2017-10-17T22:54:30.698Z,1013.2
2017-10-17T22:55:11.271Z,1013.22
2017-10-17T22:55:51.844Z,1013.25
2017-10-17T22:56:32.416Z,1013.25
2017-10-17T22:57:13.009Z,1013.21
2017-10-17T22:57:53.572Z,1013.22
2017-10-17T22:58:34.147Z,1013.18
2017-10-17T22:59:14.720Z,1013.25
2017-10-17T22:59:55.285Z,1013.27
2017-10-17T23:00:35.848Z,1013.24
2017-10-17T23:01:16.416Z,1013.24
2017-10-17T23:01:56.995Z,1013.27
2017-10-17T23:02:37.568Z,1013.26
2017-10-17T23:03:18.130Z,1013.25
2017-10-17T23:03:58.725Z,1013.22
2017-10-17T23:04:39.286Z,1013.27
2017-10-17T23:05:19.857Z,1013.27
2017-10-17T23:06:00.426Z,1013.26
2017-10-17T23:06:41.006Z,1013.25
2017-10-17T23:07:21.584Z,1013.24
2017-10-17T23:08:02.144Z,1013.27
2017-10-17T23:08:42.719Z,1013.24
2017-10-17T23:09:23.280Z,1013.27
2017-10-17T23:10:03.860Z,1013.24
2017-10-17T23:10:44.437Z,1013.23
2017-10-17T23:11:25.026Z,1013.26
2017-10-17T23:12:05.591Z,1013.23
2017-10-17T23:12:46.170Z,1013.25
2017-10-17T23:13:26.744Z,1013.24
2017-10-17T23:14:07.324Z,1013.21
2017-10-17T23:14:47.905Z,1013.22
2017-10-17T23:15:28.470Z,1013.23
2017-10-17T23:16:09.035Z,1013.23
2017-10-17T23:16:49.625Z,1013.19
2017-10-17T23:17:30.194Z,1013.22
2017-10-17T23:18:10.768Z,1013.21
2017-10-17T23:18:51.334Z,1013.21
2017-10-17T23:19:31.927Z,1013.24
2017-10-17T23:20:12.492Z,1013.22
2017-10-17T23:20:53.094Z,1013.2
2017-10-17T23:21:33.689Z,1013.18
2017-10-17T23:22:14.255Z,1013.19
2017-10-17T23:22:54.814Z,1013.22
2017-10-17T23:23:35.379Z,1013.17
2017-10-17T23:24:15.942Z,1013.15
2017-10-17T23:24:56.513Z,1013.18
2017-10-17T23:25:37.077Z,1013.17
2017-10-17T23:26:17.640Z,1013.18
2017-10-17T23:26:58.197Z,1013.18
2017-10-17T23:27:38.811Z,1013.19
2017-10-17T23:28:19.415Z,1013.19
2017-10-17T23:29:00.012Z,1013.18
2017-10-17T23:29:40.621Z,1013.19
2017-10-17T23:30:21.194Z,1013.17
2017-10-17T23:31:01.764Z,1013.16
2017-10-17T23:31:42.335Z,1013.18
2017-10-17T23:32:22.905Z,1013.18
2017-10-17T23:33:03.472Z,1013.21
2017-10-17T23:33:44.041Z,1013.15
2017-10-17T23:34:24.632Z,1013.17
2017-10-17T23:35:05.200Z,1013.18
2017-10-17T23:35:45.770Z,1013.15
2017-10-17T23:36:26.338Z,1013.13
2017-10-17T23:37:06.924Z,1013.13
2017-10-17T23:37:47.495Z,1013.14
2017-10-17T23:38:28.051Z,1013.17
2017-10-17T23:39:08.739Z,1013.13
2017-10-17T23:39:49.312Z,1013.13
2017-10-17T23:40:29.886Z,1013.11
2017-10-17T23:41:10.453Z,1013.12
2017-10-17T23:41:51.028Z,1013.11
2017-10-17T23:42:31.582Z,1013.12
2017-10-17T23:43:12.173Z,1013.1
2017-10-17T23:43:52.762Z,1013.12
2017-10-17T23:44:33.336Z,1013.05
2017-10-17T23:45:13.894Z,1013.07
2017-10-17T23:45:54.456Z,1013.06
2017-10-17T23:46:35.040Z,1013.07
2017-10-17T23:47:15.612Z,1013.04
2017-10-17T23:47:56.199Z,1013.04
2017-10-17T23:48:36.758Z,1013.04
2017-10-17T23:49:17.327Z,1013.04
2017-10-17T23:49:57.911Z,1013.03
2017-10-17T23:50:38.491Z,1013.06
2017-10-17T23:51:19.050Z,1013.01
2017-10-17T23:51:59.620Z,1013.05
2017-10-17T23:52:40.192Z,1013.03
2017-10-17T23:53:20.763Z,1012.98
2017-10-17T23:54:01.327Z,1013.02
2017-10-17T23:54:41.887Z,1013.03
2017-10-17T23:55:22.455Z,1013.02
2017-10-17T23:56:03.017Z,1012.98
2017-10-17T23:56:43.586Z,1012.98
2017-10-17T23:57:24.160Z,1013
2017-10-17T23:58:04.727Z,1012.98
2017-10-17T23:58:45.300Z,1012.95
2017-10-17T23:59:25.871Z,1013
